sensor_id;sensor_type;location;lat;lon;timestamp;P1;durP1;ratioP1;P2;durP2;ratioP2
43706;SDS011;61348;53.392;-6.248;2023-11-19T00:00:11;20.38;;;3.35;;
43706;SDS011;61348;53.392;-6.248;2023-11-19T00:02:40;14.95;;;3.33;;
43706;SDS011;61348;53.392;-6.248;2023-11-19T00:05:09;12.50;;;3.00;;
43706;SDS011;61348;53.392;-6.248;2023-11-19T00:07:39;20.33;;;4.07;;
43706;SDS011;61348;53.392;-6.248;2023-11-19T00:10:09;16.38;;;3.60;;
43706;SDS011;61348;53.392;-6.248;2023-11-19T00:12:39;15.20;;;4.47;;
43706;SDS011;61348;53.392;-6.248;2023-11-19T00:15:08;18.75;;;3.50;;
43706;SDS011;61348;53.392;-6.248;2023-11-19T00:17:39;11.88;;;3.05;;
43706;SDS011;61348;53.392;-6.248;2023-11-19T00:20:07;30.08;;;5.85;;
43706;SDS011;61348;53.392;-6.248;2023-11-19T00:22:35;25.58;;;3.80;;
43706;SDS011;61348;53.392;-6.248;2023-11-19T00:25:02;20.55;;;4.90;;
43706;SDS011;61348;53.392;-6.248;2023-11-19T00:27:30;19.92;;;3.47;;
43706;SDS011;61348;53.392;-6.248;2023-11-19T00:29:58;20.92;;;4.65;;
43706;SDS011;61348;53.392;-6.248;2023-11-19T00:32:25;19.50;;;3.67;;
43706;SDS011;61348;53.392;-6.248;2023-11-19T00:34:53;15.30;;;4.55;;
43706;SDS011;61348;53.392;-6.248;2023-11-19T00:37:20;19.00;;;4.82;;
43706;SDS011;61348;53.392;-6.248;2023-11-19T00:39:47;22.85;;;5.03;;
43706;SDS011;61348;53.392;-6.248;2023-11-19T00:42:15;19.92;;;3.53;;
43706;SDS011;61348;53.392;-6.248;2023-11-19T00:44:44;18.13;;;4.70;;
43706;SDS011;61348;53.392;-6.248;2023-11-19T00:47:15;16.52;;;3.58;;
43706;SDS011;61348;53.392;-6.248;2023-11-19T00:49:42;20.25;;;4.35;;
43706;SDS011;61348;53.392;-6.248;2023-11-19T00:52:10;38.13;;;5.50;;
43706;SDS011;61348;53.392;-6.248;2023-11-19T00:54:37;17.60;;;4.85;;
43706;SDS011;61348;53.392;-6.248;2023-11-19T00:57:05;22.90;;;4.68;;
43706;SDS011;61348;53.392;-6.248;2023-11-19T00:59:33;22.58;;;4.00;;
43706;SDS011;61348;53.392;-6.248;2023-11-19T01:02:00;14.52;;;3.75;;
43706;SDS011;61348;53.392;-6.248;2023-11-19T01:04:35;18.52;;;4.15;;
43706;SDS011;61348;53.392;-6.248;2023-11-19T01:07:03;20.10;;;3.35;;
43706;SDS011;61348;53.392;-6.248;2023-11-19T01:09:32;22.80;;;3.90;;
43706;SDS011;61348;53.392;-6.248;2023-11-19T01:12:02;15.60;;;3.65;;
43706;SDS011;61348;53.392;-6.248;2023-11-19T01:14:30;17.58;;;4.38;;
43706;SDS011;61348;53.392;-6.248;2023-11-19T01:16:58;15.60;;;2.97;;
43706;SDS011;61348;53.392;-6.248;2023-11-19T01:19:25;14.52;;;2.97;;
43706;SDS011;61348;53.392;-6.248;2023-11-19T01:21:53;16.75;;;3.65;;
43706;SDS011;61348;53.392;-6.248;2023-11-19T01:24:20;12.93;;;2.90;;
43706;SDS011;61348;53.392;-6.248;2023-11-19T01:26:48;19.05;;;4.55;;
43706;SDS011;61348;53.392;-6.248;2023-11-19T01:29:15;15.40;;;3.72;;
43706;SDS011;61348;53.392;-6.248;2023-11-19T01:31:43;22.55;;;6.53;;
43706;SDS011;61348;53.392;-6.248;2023-11-19T01:34:13;25.48;;;4.45;;
43706;SDS011;61348;53.392;-6.248;2023-11-19T01:36:41;20.88;;;3.47;;
43706;SDS011;61348;53.392;-6.248;2023-11-19T01:39:08;19.98;;;3.40;;
43706;SDS011;61348;53.392;-6.248;2023-11-19T01:41:35;17.85;;;3.45;;
43706;SDS011;61348;53.392;-6.248;2023-11-19T01:44:03;18.80;;;2.90;;
43706;SDS011;61348;53.392;-6.248;2023-11-19T01:46:32;20.80;;;5.63;;
43706;SDS011;61348;53.392;-6.248;2023-11-19T01:49:00;12.75;;;2.50;;
43706;SDS011;61348;53.392;-6.248;2023-11-19T01:51:29;19.95;;;2.97;;
43706;SDS011;61348;53.392;-6.248;2023-11-19T01:53:57;17.10;;;3.08;;
43706;SDS011;61348;53.392;-6.248;2023-11-19T01:56:25;10.50;;;2.80;;
43706;SDS011;61348;53.392;-6.248;2023-11-19T01:58:54;13.20;;;3.45;;
43706;SDS011;61348;53.392;-6.248;2023-11-19T02:01:23;8.93;;;2.95;;
43706;SDS011;61348;53.392;-6.248;2023-11-19T02:03:51;14.77;;;2.25;;
43706;SDS011;61348;53.392;-6.248;2023-11-19T02:06:19;12.13;;;2.50;;
43706;SDS011;61348;53.392;-6.248;2023-11-19T02:08:46;16.25;;;2.65;;
43706;SDS011;61348;53.392;-6.248;2023-11-19T02:11:15;14.98;;;2.67;;
43706;SDS011;61348;53.392;-6.248;2023-11-19T02:13:42;13.45;;;2.97;;
43706;SDS011;61348;53.392;-6.248;2023-11-19T02:16:11;12.57;;;2.90;;
43706;SDS011;61348;53.392;-6.248;2023-11-19T02:18:38;17.23;;;6.72;;
43706;SDS011;61348;53.392;-6.248;2023-11-19T02:21:06;17.50;;;3.50;;
43706;SDS011;61348;53.392;-6.248;2023-11-19T02:23:33;13.52;;;3.03;;
43706;SDS011;61348;53.392;-6.248;2023-11-19T02:28:42;13.30;;;2.88;;
43706;SDS011;61348;53.392;-6.248;2023-11-19T02:31:10;13.68;;;2.78;;
43706;SDS011;61348;53.392;-6.248;2023-11-19T02:33:39;16.63;;;2.38;;
43706;SDS011;61348;53.392;-6.248;2023-11-19T02:36:07;12.93;;;2.72;;
43706;SDS011;61348;53.392;-6.248;2023-11-19T02:38:35;11.40;;;2.50;;
43706;SDS011;61348;53.392;-6.248;2023-11-19T02:41:03;16.27;;;2.10;;
43706;SDS011;61348;53.392;-6.248;2023-11-19T02:43:36;10.77;;;2.58;;
43706;SDS011;61348;53.392;-6.248;2023-11-19T02:46:04;9.73;;;2.55;;
43706;SDS011;61348;53.392;-6.248;2023-11-19T02:48:36;14.30;;;2.15;;
43706;SDS011;61348;53.392;-6.248;2023-11-19T02:51:04;12.02;;;2.70;;
43706;SDS011;61348;53.392;-6.248;2023-11-19T02:53:35;7.45;;;2.55;;
43706;SDS011;61348;53.392;-6.248;2023-11-19T02:56:04;13.27;;;2.90;;
43706;SDS011;61348;53.392;-6.248;2023-11-19T02:58:52;19.67;;;3.22;;
43706;SDS011;61348;53.392;-6.248;2023-11-19T03:01:23;8.32;;;2.30;;
43706;SDS011;61348;53.392;-6.248;2023-11-19T03:03:58;30.35;;;4.35;;
43706;SDS011;61348;53.392;-6.248;2023-11-19T03:06:26;11.15;;;2.67;;
43706;SDS011;61348;53.392;-6.248;2023-11-19T03:08:55;8.88;;;2.10;;
43706;SDS011;61348;53.392;-6.248;2023-11-19T03:11:23;13.48;;;2.13;;
43706;SDS011;61348;53.392;-6.248;2023-11-19T03:13:51;15.68;;;3.10;;
43706;SDS011;61348;53.392;-6.248;2023-11-19T03:16:19;14.90;;;2.70;;
43706;SDS011;61348;53.392;-6.248;2023-11-19T03:18:46;11.35;;;3.33;;
43706;SDS011;61348;53.392;-6.248;2023-11-19T03:21:13;13.07;;;2.22;;
43706;SDS011;61348;53.392;-6.248;2023-11-19T03:23:41;13.18;;;2.65;;
43706;SDS011;61348;53.392;-6.248;2023-11-19T03:26:09;13.65;;;4.28;;
43706;SDS011;61348;53.392;-6.248;2023-11-19T03:28:37;10.15;;;2.35;;
43706;SDS011;61348;53.392;-6.248;2023-11-19T03:31:05;12.55;;;3.13;;
43706;SDS011;61348;53.392;-6.248;2023-11-19T03:33:35;11.45;;;2.75;;
43706;SDS011;61348;53.392;-6.248;2023-11-19T03:36:04;7.45;;;2.03;;
43706;SDS011;61348;53.392;-6.248;2023-11-19T03:38:32;14.80;;;4.20;;
43706;SDS011;61348;53.392;-6.248;2023-11-19T03:41:00;18.20;;;2.83;;
43706;SDS011;61348;53.392;-6.248;2023-11-19T03:43:27;15.63;;;3.85;;
43706;SDS011;61348;53.392;-6.248;2023-11-19T03:45:54;6.75;;;1.98;;
43706;SDS011;61348;53.392;-6.248;2023-11-19T03:48:22;16.50;;;2.33;;
43706;SDS011;61348;53.392;-6.248;2023-11-19T03:50:49;12.95;;;2.38;;
43706;SDS011;61348;53.392;-6.248;2023-11-19T03:53:16;17.75;;;2.80;;
43706;SDS011;61348;53.392;-6.248;2023-11-19T03:55:45;12.73;;;2.42;;
43706;SDS011;61348;53.392;-6.248;2023-11-19T03:58:12;9.23;;;2.67;;
43706;SDS011;61348;53.392;-6.248;2023-11-19T04:00:40;12.38;;;2.20;;
43706;SDS011;61348;53.392;-6.248;2023-11-19T04:03:08;10.23;;;4.30;;
43706;SDS011;61348;53.392;-6.248;2023-11-19T04:05:35;11.80;;;1.92;;
43706;SDS011;61348;53.392;-6.248;2023-11-19T04:08:02;14.27;;;2.95;;
43706;SDS011;61348;53.392;-6.248;2023-11-19T04:10:29;11.45;;;2.33;;
43706;SDS011;61348;53.392;-6.248;2023-11-19T04:12:57;12.43;;;3.53;;
43706;SDS011;61348;53.392;-6.248;2023-11-19T04:15:24;11.70;;;3.03;;
43706;SDS011;61348;53.392;-6.248;2023-11-19T04:17:51;8.70;;;1.65;;
43706;SDS011;61348;53.392;-6.248;2023-11-19T04:20:19;14.23;;;2.20;;
43706;SDS011;61348;53.392;-6.248;2023-11-19T04:22:46;9.60;;;2.20;;
43706;SDS011;61348;53.392;-6.248;2023-11-19T04:25:13;7.53;;;2.08;;
43706;SDS011;61348;53.392;-6.248;2023-11-19T04:27:42;9.80;;;1.90;;
43706;SDS011;61348;53.392;-6.248;2023-11-19T04:30:09;9.70;;;2.70;;
43706;SDS011;61348;53.392;-6.248;2023-11-19T04:32:38;14.32;;;2.88;;
43706;SDS011;61348;53.392;-6.248;2023-11-19T04:35:05;12.90;;;2.22;;
43706;SDS011;61348;53.392;-6.248;2023-11-19T04:37:36;10.05;;;1.88;;
43706;SDS011;61348;53.392;-6.248;2023-11-19T04:40:04;12.68;;;2.17;;
43706;SDS011;61348;53.392;-6.248;2023-11-19T04:42:32;8.75;;;1.90;;
43706;SDS011;61348;53.392;-6.248;2023-11-19T04:45:00;10.80;;;2.40;;
43706;SDS011;61348;53.392;-6.248;2023-11-19T04:47:27;10.88;;;2.00;;
43706;SDS011;61348;53.392;-6.248;2023-11-19T04:49:54;7.85;;;1.33;;
43706;SDS011;61348;53.392;-6.248;2023-11-19T04:52:21;8.68;;;1.40;;
43706;SDS011;61348;53.392;-6.248;2023-11-19T04:54:49;10.52;;;1.75;;
43706;SDS011;61348;53.392;-6.248;2023-11-19T04:57:16;6.68;;;1.58;;
43706;SDS011;61348;53.392;-6.248;2023-11-19T04:59:44;8.52;;;1.98;;
43706;SDS011;61348;53.392;-6.248;2023-11-19T05:02:12;10.00;;;1.80;;
43706;SDS011;61348;53.392;-6.248;2023-11-19T05:04:42;8.98;;;1.58;;
43706;SDS011;61348;53.392;-6.248;2023-11-19T05:07:14;15.88;;;1.88;;
43706;SDS011;61348;53.392;-6.248;2023-11-19T05:09:41;12.63;;;1.50;;
43706;SDS011;61348;53.392;-6.248;2023-11-19T05:12:10;6.32;;;1.48;;
43706;SDS011;61348;53.392;-6.248;2023-11-19T05:14:39;13.45;;;2.15;;
43706;SDS011;61348;53.392;-6.248;2023-11-19T05:17:07;10.75;;;2.85;;
43706;SDS011;61348;53.392;-6.248;2023-11-19T05:19:34;11.27;;;1.73;;
43706;SDS011;61348;53.392;-6.248;2023-11-19T05:22:02;9.07;;;2.30;;
43706;SDS011;61348;53.392;-6.248;2023-11-19T05:24:31;8.13;;;2.10;;
43706;SDS011;61348;53.392;-6.248;2023-11-19T05:26:58;6.28;;;1.42;;
43706;SDS011;61348;53.392;-6.248;2023-11-19T05:29:25;18.05;;;4.47;;
43706;SDS011;61348;53.392;-6.248;2023-11-19T05:31:54;5.57;;;1.23;;
43706;SDS011;61348;53.392;-6.248;2023-11-19T05:34:22;8.38;;;2.28;;
43706;SDS011;61348;53.392;-6.248;2023-11-19T05:36:49;10.27;;;1.95;;
43706;SDS011;61348;53.392;-6.248;2023-11-19T05:39:17;8.88;;;1.73;;
43706;SDS011;61348;53.392;-6.248;2023-11-19T05:41:48;5.40;;;1.38;;
43706;SDS011;61348;53.392;-6.248;2023-11-19T05:44:16;8.13;;;2.05;;
43706;SDS011;61348;53.392;-6.248;2023-11-19T05:46:44;6.05;;;1.77;;
43706;SDS011;61348;53.392;-6.248;2023-11-19T05:49:12;5.57;;;1.40;;
43706;SDS011;61348;53.392;-6.248;2023-11-19T05:51:41;13.57;;;1.42;;
43706;SDS011;61348;53.392;-6.248;2023-11-19T05:54:09;11.00;;;2.40;;
43706;SDS011;61348;53.392;-6.248;2023-11-19T05:56:37;11.38;;;1.52;;
43706;SDS011;61348;53.392;-6.248;2023-11-19T05:59:04;9.68;;;1.48;;
43706;SDS011;61348;53.392;-6.248;2023-11-19T06:01:34;12.90;;;1.63;;
43706;SDS011;61348;53.392;-6.248;2023-11-19T06:04:02;10.00;;;1.48;;
43706;SDS011;61348;53.392;-6.248;2023-11-19T06:06:29;8.52;;;1.92;;
43706;SDS011;61348;53.392;-6.248;2023-11-19T06:08:57;12.75;;;1.40;;
43706;SDS011;61348;53.392;-6.248;2023-11-19T06:11:24;10.43;;;1.65;;
43706;SDS011;61348;53.392;-6.248;2023-11-19T06:13:53;10.80;;;1.23;;
43706;SDS011;61348;53.392;-6.248;2023-11-19T06:16:21;5.53;;;1.27;;
43706;SDS011;61348;53.392;-6.248;2023-11-19T06:18:48;3.28;;;0.98;;
43706;SDS011;61348;53.392;-6.248;2023-11-19T06:21:15;5.20;;;1.80;;
43706;SDS011;61348;53.392;-6.248;2023-11-19T06:23:43;3.55;;;1.10;;
43706;SDS011;61348;53.392;-6.248;2023-11-19T06:26:11;5.05;;;1.60;;
43706;SDS011;61348;53.392;-6.248;2023-11-19T06:28:38;7.55;;;1.00;;
43706;SDS011;61348;53.392;-6.248;2023-11-19T06:31:07;4.38;;;1.10;;
43706;SDS011;61348;53.392;-6.248;2023-11-19T06:33:35;8.20;;;0.98;;
43706;SDS011;61348;53.392;-6.248;2023-11-19T06:36:02;6.07;;;0.85;;
43706;SDS011;61348;53.392;-6.248;2023-11-19T06:38:30;4.35;;;0.50;;
43706;SDS011;61348;53.392;-6.248;2023-11-19T06:40:57;3.97;;;0.82;;
43706;SDS011;61348;53.392;-6.248;2023-11-19T06:43:24;5.20;;;0.82;;
43706;SDS011;61348;53.392;-6.248;2023-11-19T06:45:53;5.20;;;1.00;;
43706;SDS011;61348;53.392;-6.248;2023-11-19T06:48:21;6.15;;;1.10;;
43706;SDS011;61348;53.392;-6.248;2023-11-19T06:50:48;4.10;;;0.52;;
43706;SDS011;61348;53.392;-6.248;2023-11-19T06:53:16;4.15;;;1.10;;
43706;SDS011;61348;53.392;-6.248;2023-11-19T06:55:43;7.00;;;1.10;;
43706;SDS011;61348;53.392;-6.248;2023-11-19T06:58:10;8.05;;;1.17;;
43706;SDS011;61348;53.392;-6.248;2023-11-19T07:00:39;6.07;;;1.20;;
43706;SDS011;61348;53.392;-6.248;2023-11-19T07:03:06;9.52;;;1.45;;
43706;SDS011;61348;53.392;-6.248;2023-11-19T07:05:36;4.38;;;1.20;;
43706;SDS011;61348;53.392;-6.248;2023-11-19T07:08:07;8.82;;;2.20;;
43706;SDS011;61348;53.392;-6.248;2023-11-19T07:10:34;8.88;;;1.63;;
43706;SDS011;61348;53.392;-6.248;2023-11-19T07:13:01;3.72;;;0.90;;
43706;SDS011;61348;53.392;-6.248;2023-11-19T07:15:33;4.60;;;0.95;;
43706;SDS011;61348;53.392;-6.248;2023-11-19T07:18:00;11.00;;;1.10;;
43706;SDS011;61348;53.392;-6.248;2023-11-19T07:20:29;5.38;;;1.00;;
43706;SDS011;61348;53.392;-6.248;2023-11-19T07:22:58;2.55;;;0.88;;
43706;SDS011;61348;53.392;-6.248;2023-11-19T07:25:25;6.25;;;0.82;;
43706;SDS011;61348;53.392;-6.248;2023-11-19T07:27:53;3.58;;;1.08;;
43706;SDS011;61348;53.392;-6.248;2023-11-19T07:30:20;3.80;;;1.45;;
43706;SDS011;61348;53.392;-6.248;2023-11-19T07:32:48;6.38;;;2.05;;
43706;SDS011;61348;53.392;-6.248;2023-11-19T07:35:15;6.68;;;1.10;;
43706;SDS011;61348;53.392;-6.248;2023-11-19T07:37:43;3.40;;;1.10;;
43706;SDS011;61348;53.392;-6.248;2023-11-19T07:40:10;7.18;;;1.20;;
43706;SDS011;61348;53.392;-6.248;2023-11-19T07:42:38;3.90;;;0.88;;
43706;SDS011;61348;53.392;-6.248;2023-11-19T07:45:05;9.73;;;1.00;;
43706;SDS011;61348;53.392;-6.248;2023-11-19T07:47:34;6.93;;;1.05;;
43706;SDS011;61348;53.392;-6.248;2023-11-19T07:50:02;3.47;;;1.02;;
43706;SDS011;61348;53.392;-6.248;2023-11-19T07:52:30;2.33;;;1.08;;
43706;SDS011;61348;53.392;-6.248;2023-11-19T07:54:58;4.28;;;0.88;;
43706;SDS011;61348;53.392;-6.248;2023-11-19T07:57:25;3.70;;;0.38;;
43706;SDS011;61348;53.392;-6.248;2023-11-19T07:59:54;3.45;;;0.50;;
43706;SDS011;61348;53.392;-6.248;2023-11-19T08:02:24;3.30;;;0.43;;
43706;SDS011;61348;53.392;-6.248;2023-11-19T08:04:51;3.83;;;0.60;;
43706;SDS011;61348;53.392;-6.248;2023-11-19T08:07:19;1.63;;;0.32;;
43706;SDS011;61348;53.392;-6.248;2023-11-19T08:09:46;1.05;;;0.30;;
43706;SDS011;61348;53.392;-6.248;2023-11-19T08:12:14;2.17;;;0.50;;
43706;SDS011;61348;53.392;-6.248;2023-11-19T08:14:44;1.05;;;0.40;;
43706;SDS011;61348;53.392;-6.248;2023-11-19T08:17:11;2.30;;;0.40;;
43706;SDS011;61348;53.392;-6.248;2023-11-19T08:19:39;2.15;;;0.43;;
43706;SDS011;61348;53.392;-6.248;2023-11-19T08:22:06;5.55;;;1.65;;
43706;SDS011;61348;53.392;-6.248;2023-11-19T08:24:33;2.33;;;0.30;;
43706;SDS011;61348;53.392;-6.248;2023-11-19T08:27:01;3.58;;;0.30;;
43706;SDS011;61348;53.392;-6.248;2023-11-19T08:29:29;0.75;;;0.35;;
43706;SDS011;61348;53.392;-6.248;2023-11-19T08:31:56;4.20;;;0.30;;
43706;SDS011;61348;53.392;-6.248;2023-11-19T08:34:24;1.80;;;0.57;;
43706;SDS011;61348;53.392;-6.248;2023-11-19T08:36:52;1.35;;;0.35;;
43706;SDS011;61348;53.392;-6.248;2023-11-19T08:39:22;2.50;;;0.30;;
43706;SDS011;61348;53.392;-6.248;2023-11-19T08:41:50;1.52;;;0.40;;
43706;SDS011;61348;53.392;-6.248;2023-11-19T08:44:17;2.10;;;0.43;;
43706;SDS011;61348;53.392;-6.248;2023-11-19T08:46:47;2.25;;;0.25;;
43706;SDS011;61348;53.392;-6.248;2023-11-19T08:49:16;3.58;;;0.82;;
43706;SDS011;61348;53.392;-6.248;2023-11-19T08:51:43;0.90;;;0.30;;
43706;SDS011;61348;53.392;-6.248;2023-11-19T08:54:12;3.10;;;0.30;;
43706;SDS011;61348;53.392;-6.248;2023-11-19T08:56:41;1.40;;;0.32;;
43706;SDS011;61348;53.392;-6.248;2023-11-19T08:59:09;0.50;;;0.30;;
43706;SDS011;61348;53.392;-6.248;2023-11-19T09:01:36;1.98;;;0.20;;
43706;SDS011;61348;53.392;-6.248;2023-11-19T09:04:03;1.58;;;0.30;;
43706;SDS011;61348;53.392;-6.248;2023-11-19T09:06:32;1.20;;;0.17;;
43706;SDS011;61348;53.392;-6.248;2023-11-19T09:08:59;2.42;;;0.30;;
43706;SDS011;61348;53.392;-6.248;2023-11-19T09:11:32;0.40;;;0.20;;
43706;SDS011;61348;53.392;-6.248;2023-11-19T09:13:59;0.38;;;0.10;;
43706;SDS011;61348;53.392;-6.248;2023-11-19T09:16:26;1.17;;;0.63;;
43706;SDS011;61348;53.392;-6.248;2023-11-19T09:18:54;1.08;;;0.20;;
43706;SDS011;61348;53.392;-6.248;2023-11-19T09:21:21;1.42;;;0.20;;
43706;SDS011;61348;53.392;-6.248;2023-11-19T09:23:49;0.43;;;0.20;;
43706;SDS011;61348;53.392;-6.248;2023-11-19T09:26:17;1.08;;;0.30;;
43706;SDS011;61348;53.392;-6.248;2023-11-19T09:28:44;1.17;;;0.15;;
43706;SDS011;61348;53.392;-6.248;2023-11-19T09:31:12;0.20;;;0.20;;
43706;SDS011;61348;53.392;-6.248;2023-11-19T09:33:43;0.50;;;0.10;;
43706;SDS011;61348;53.392;-6.248;2023-11-19T09:36:11;1.02;;;0.20;;
43706;SDS011;61348;53.392;-6.248;2023-11-19T09:38:45;0.65;;;0.20;;
43706;SDS011;61348;53.392;-6.248;2023-11-19T09:41:12;3.22;;;0.40;;
43706;SDS011;61348;53.392;-6.248;2023-11-19T09:43:41;1.02;;;0.20;;
43706;SDS011;61348;53.392;-6.248;2023-11-19T09:46:15;1.92;;;0.17;;
43706;SDS011;61348;53.392;-6.248;2023-11-19T09:48:48;1.48;;;0.10;;
43706;SDS011;61348;53.392;-6.248;2023-11-19T09:51:19;0.57;;;0.30;;
43706;SDS011;61348;53.392;-6.248;2023-11-19T09:54:02;0.10;;;0.10;;
43706;SDS011;61348;53.392;-6.248;2023-11-19T09:56:37;0.63;;;0.10;;
43706;SDS011;61348;53.392;-6.248;2023-11-19T09:59:05;0.22;;;0.20;;
43706;SDS011;61348;53.392;-6.248;2023-11-19T10:01:33;0.57;;;0.20;;
43706;SDS011;61348;53.392;-6.248;2023-11-19T10:04:02;0.70;;;0.20;;
43706;SDS011;61348;53.392;-6.248;2023-11-19T10:06:30;3.35;;;0.63;;
43706;SDS011;61348;53.392;-6.248;2023-11-19T10:08:57;0.90;;;0.20;;
43706;SDS011;61348;53.392;-6.248;2023-11-19T10:11:25;2.08;;;0.95;;
43706;SDS011;61348;53.392;-6.248;2023-11-19T10:13:53;0.95;;;0.22;;
43706;SDS011;61348;53.392;-6.248;2023-11-19T10:16:22;0.60;;;0.40;;
43706;SDS011;61348;53.392;-6.248;2023-11-19T10:18:56;0.50;;;0.40;;
43706;SDS011;61348;53.392;-6.248;2023-11-19T10:21:24;1.92;;;0.40;;
43706;SDS011;61348;53.392;-6.248;2023-11-19T10:23:53;1.65;;;0.45;;
43706;SDS011;61348;53.392;-6.248;2023-11-19T10:26:24;0.75;;;0.20;;
43706;SDS011;61348;53.392;-6.248;2023-11-19T10:28:51;1.77;;;0.20;;
43706;SDS011;61348;53.392;-6.248;2023-11-19T10:31:19;0.35;;;0.22;;
43706;SDS011;61348;53.392;-6.248;2023-11-19T10:33:54;5.63;;;0.50;;
43706;SDS011;61348;53.392;-6.248;2023-11-19T10:36:21;1.25;;;0.40;;
43706;SDS011;61348;53.392;-6.248;2023-11-19T10:38:52;1.70;;;0.73;;
43706;SDS011;61348;53.392;-6.248;2023-11-19T10:41:29;2.17;;;0.50;;
43706;SDS011;61348;53.392;-6.248;2023-11-19T10:43:58;2.95;;;0.52;;
43706;SDS011;61348;53.392;-6.248;2023-11-19T10:46:39;1.33;;;0.70;;
43706;SDS011;61348;53.392;-6.248;2023-11-19T10:49:08;1.23;;;0.60;;
43706;SDS011;61348;53.392;-6.248;2023-11-19T10:51:35;2.38;;;0.50;;
43706;SDS011;61348;53.392;-6.248;2023-11-19T10:54:03;1.45;;;0.30;;
43706;SDS011;61348;53.392;-6.248;2023-11-19T10:56:33;4.30;;;0.40;;
43706;SDS011;61348;53.392;-6.248;2023-11-19T10:59:01;4.43;;;0.70;;
43706;SDS011;61348;53.392;-6.248;2023-11-19T11:01:48;1.80;;;0.50;;
43706;SDS011;61348;53.392;-6.248;2023-11-19T11:04:19;3.08;;;0.40;;
43706;SDS011;61348;53.392;-6.248;2023-11-19T11:06:50;1.23;;;0.47;;
43706;SDS011;61348;53.392;-6.248;2023-11-19T11:09:18;2.47;;;0.40;;
43706;SDS011;61348;53.392;-6.248;2023-11-19T11:11:47;2.42;;;0.30;;
43706;SDS011;61348;53.392;-6.248;2023-11-19T11:14:16;3.72;;;0.47;;
43706;SDS011;61348;53.392;-6.248;2023-11-19T11:16:45;3.45;;;0.30;;
43706;SDS011;61348;53.392;-6.248;2023-11-19T11:19:13;3.15;;;0.52;;
43706;SDS011;61348;53.392;-6.248;2023-11-19T11:21:43;2.95;;;0.50;;
43706;SDS011;61348;53.392;-6.248;2023-11-19T11:24:35;3.20;;;0.35;;
43706;SDS011;61348;53.392;-6.248;2023-11-19T11:30:13;0.40;;;0.35;;
43706;SDS011;61348;53.392;-6.248;2023-11-19T11:35:53;0.57;;;0.38;;
43706;SDS011;61348;53.392;-6.248;2023-11-19T11:38:36;1.40;;;0.30;;
43706;SDS011;61348;53.392;-6.248;2023-11-19T11:41:21;2.13;;;0.50;;
43706;SDS011;61348;53.392;-6.248;2023-11-19T11:43:54;1.67;;;0.60;;
43706;SDS011;61348;53.392;-6.248;2023-11-19T11:49:06;1.15;;;0.60;;
43706;SDS011;61348;53.392;-6.248;2023-11-19T11:54:11;5.38;;;0.95;;
43706;SDS011;61348;53.392;-6.248;2023-11-19T11:57:03;3.47;;;1.02;;
43706;SDS011;61348;53.392;-6.248;2023-11-19T11:59:46;1.00;;;0.90;;
43706;SDS011;61348;53.392;-6.248;2023-11-19T12:02:18;2.33;;;0.85;;
43706;SDS011;61348;53.392;-6.248;2023-11-19T12:04:49;1.25;;;0.60;;
43706;SDS011;61348;53.392;-6.248;2023-11-19T12:07:21;1.02;;;0.57;;
43706;SDS011;61348;53.392;-6.248;2023-11-19T12:09:53;1.73;;;0.95;;
43706;SDS011;61348;53.392;-6.248;2023-11-19T12:12:35;2.10;;;1.20;;
43706;SDS011;61348;53.392;-6.248;2023-11-19T12:15:08;6.03;;;1.67;;
43706;SDS011;61348;53.392;-6.248;2023-11-19T12:17:37;2.35;;;0.75;;
43706;SDS011;61348;53.392;-6.248;2023-11-19T12:20:11;10.10;;;2.22;;
43706;SDS011;61348;53.392;-6.248;2023-11-19T12:22:39;6.13;;;1.52;;
43706;SDS011;61348;53.392;-6.248;2023-11-19T12:25:09;3.38;;;1.20;;
43706;SDS011;61348;53.392;-6.248;2023-11-19T12:27:48;2.95;;;0.93;;
43706;SDS011;61348;53.392;-6.248;2023-11-19T12:30:23;2.80;;;1.30;;
43706;SDS011;61348;53.392;-6.248;2023-11-19T12:32:52;1.67;;;0.77;;
43706;SDS011;61348;53.392;-6.248;2023-11-19T12:35:23;2.03;;;1.23;;
43706;SDS011;61348;53.392;-6.248;2023-11-19T12:37:54;5.80;;;0.90;;
43706;SDS011;61348;53.392;-6.248;2023-11-19T12:40:22;2.35;;;0.70;;
43706;SDS011;61348;53.392;-6.248;2023-11-19T12:42:52;4.35;;;1.27;;
43706;SDS011;61348;53.392;-6.248;2023-11-19T12:45:21;1.58;;;0.90;;
43706;SDS011;61348;53.392;-6.248;2023-11-19T12:48:07;8.30;;;1.95;;
43706;SDS011;61348;53.392;-6.248;2023-11-19T12:53:25;2.20;;;0.90;;
43706;SDS011;61348;53.392;-6.248;2023-11-19T12:55:54;2.72;;;0.98;;
43706;SDS011;61348;53.392;-6.248;2023-11-19T12:58:35;4.57;;;1.60;;
43706;SDS011;61348;53.392;-6.248;2023-11-19T13:01:06;2.55;;;0.60;;
43706;SDS011;61348;53.392;-6.248;2023-11-19T13:03:35;2.05;;;0.82;;
43706;SDS011;61348;53.392;-6.248;2023-11-19T13:06:05;2.25;;;0.80;;
43706;SDS011;61348;53.392;-6.248;2023-11-19T13:08:38;3.17;;;0.80;;
43706;SDS011;61348;53.392;-6.248;2023-11-19T13:11:10;4.03;;;0.90;;
43706;SDS011;61348;53.392;-6.248;2023-11-19T13:13:55;0.85;;;0.43;;
43706;SDS011;61348;53.392;-6.248;2023-11-19T13:16:27;1.70;;;0.60;;
43706;SDS011;61348;53.392;-6.248;2023-11-19T13:18:55;0.98;;;0.50;;
43706;SDS011;61348;53.392;-6.248;2023-11-19T13:21:24;0.75;;;0.73;;
43706;SDS011;61348;53.392;-6.248;2023-11-19T13:23:51;2.83;;;0.93;;
43706;SDS011;61348;53.392;-6.248;2023-11-19T13:26:19;5.68;;;1.77;;
43706;SDS011;61348;53.392;-6.248;2023-11-19T13:28:48;4.25;;;1.67;;
43706;SDS011;61348;53.392;-6.248;2023-11-19T13:31:16;10.50;;;2.35;;
43706;SDS011;61348;53.392;-6.248;2023-11-19T13:33:56;12.90;;;2.15;;
43706;SDS011;61348;53.392;-6.248;2023-11-19T13:36:32;7.63;;;2.13;;
43706;SDS011;61348;53.392;-6.248;2023-11-19T13:41:44;9.77;;;2.35;;
43706;SDS011;61348;53.392;-6.248;2023-11-19T13:44:11;8.85;;;2.40;;
43706;SDS011;61348;53.392;-6.248;2023-11-19T13:46:39;12.30;;;2.10;;
43706;SDS011;61348;53.392;-6.248;2023-11-19T13:49:06;11.32;;;3.10;;
43706;SDS011;61348;53.392;-6.248;2023-11-19T13:51:34;16.90;;;3.38;;
43706;SDS011;61348;53.392;-6.248;2023-11-19T13:54:01;15.55;;;3.08;;
43706;SDS011;61348;53.392;-6.248;2023-11-19T13:56:29;13.57;;;3.08;;
43706;SDS011;61348;53.392;-6.248;2023-11-19T13:58:56;25.98;;;5.13;;
43706;SDS011;61348;53.392;-6.248;2023-11-19T14:01:23;17.20;;;3.03;;
43706;SDS011;61348;53.392;-6.248;2023-11-19T14:03:52;16.58;;;4.43;;
43706;SDS011;61348;53.392;-6.248;2023-11-19T14:06:20;14.90;;;3.30;;
43706;SDS011;61348;53.392;-6.248;2023-11-19T14:08:47;11.77;;;2.70;;
43706;SDS011;61348;53.392;-6.248;2023-11-19T14:11:15;11.88;;;2.53;;
43706;SDS011;61348;53.392;-6.248;2023-11-19T14:13:42;13.50;;;4.90;;
43706;SDS011;61348;53.392;-6.248;2023-11-19T14:16:10;15.68;;;3.38;;
43706;SDS011;61348;53.392;-6.248;2023-11-19T14:18:39;17.73;;;4.13;;
43706;SDS011;61348;53.392;-6.248;2023-11-19T14:21:07;9.43;;;2.40;;
43706;SDS011;61348;53.392;-6.248;2023-11-19T14:23:34;10.40;;;3.22;;
43706;SDS011;61348;53.392;-6.248;2023-11-19T14:26:01;10.07;;;2.60;;
43706;SDS011;61348;53.392;-6.248;2023-11-19T14:28:29;11.88;;;3.42;;
43706;SDS011;61348;53.392;-6.248;2023-11-19T14:30:58;8.85;;;2.15;;
43706;SDS011;61348;53.392;-6.248;2023-11-19T14:33:25;8.90;;;3.10;;
43706;SDS011;61348;53.392;-6.248;2023-11-19T14:35:52;12.48;;;2.35;;
43706;SDS011;61348;53.392;-6.248;2023-11-19T14:38:20;19.40;;;3.17;;
43706;SDS011;61348;53.392;-6.248;2023-11-19T14:40:47;14.70;;;3.33;;
43706;SDS011;61348;53.392;-6.248;2023-11-19T14:43:15;10.70;;;2.83;;
43706;SDS011;61348;53.392;-6.248;2023-11-19T14:45:42;14.90;;;3.08;;
43706;SDS011;61348;53.392;-6.248;2023-11-19T14:48:16;11.10;;;2.88;;
43706;SDS011;61348;53.392;-6.248;2023-11-19T14:50:47;12.82;;;2.92;;
43706;SDS011;61348;53.392;-6.248;2023-11-19T14:53:14;9.18;;;2.15;;
43706;SDS011;61348;53.392;-6.248;2023-11-19T14:55:42;14.77;;;2.92;;
43706;SDS011;61348;53.392;-6.248;2023-11-19T14:58:09;13.45;;;2.55;;